createdAt,value
2023-12-07T00:01:57.734Z,98.80
2023-12-07T00:04:25.685Z,99.00
2023-12-07T00:06:53.653Z,99.00
2023-12-07T00:09:21.578Z,99.30
2023-12-07T00:11:49.418Z,99.40
2023-12-07T00:14:18.120Z,99.40
2023-12-07T00:16:47.302Z,99.50
2023-12-07T00:19:15.286Z,99.70
2023-12-07T00:21:43.162Z,99.70
2023-12-07T00:24:11.102Z,99.80
2023-12-07T00:26:39.328Z,99.90
2023-12-07T00:29:07.285Z,99.90
2023-12-07T00:31:35.172Z,99.90
2023-12-07T00:34:04.742Z,99.90
2023-12-07T00:36:32.590Z,99.90
2023-12-07T00:39:00.451Z,99.90
2023-12-07T00:41:28.315Z,99.90
2023-12-07T00:43:56.187Z,99.90
2023-12-07T00:46:24.336Z,99.90
2023-12-07T00:48:52.212Z,99.90
2023-12-07T00:51:21.462Z,99.90
2023-12-07T00:53:49.508Z,99.90
2023-12-07T00:56:17.349Z,99.90
2023-12-07T00:58:45.185Z,99.90
2023-12-07T01:01:13.128Z,99.90
2023-12-07T01:03:41.776Z,99.90
2023-12-07T01:06:11.222Z,99.90
2023-12-07T01:08:40.613Z,99.90
2023-12-07T01:11:08.493Z,99.90
2023-12-07T01:13:37.212Z,99.90
2023-12-07T01:16:05.495Z,99.90
2023-12-07T01:18:33.982Z,99.90
2023-12-07T01:21:01.912Z,99.90
2023-12-07T01:23:29.807Z,99.90
2023-12-07T01:25:59.072Z,99.90
2023-12-07T01:28:26.984Z,99.90
2023-12-07T01:30:54.949Z,99.90
2023-12-07T01:33:23.049Z,99.90
2023-12-07T01:35:51.550Z,99.90
2023-12-07T01:38:20.465Z,99.90
2023-12-07T01:40:48.337Z,99.90
2023-12-07T01:43:17.587Z,99.80
2023-12-07T01:45:45.671Z,99.50
2023-12-07T01:48:13.599Z,99.30
2023-12-07T01:50:42.090Z,99.10
2023-12-07T01:53:10.520Z,99.20
2023-12-07T01:55:38.791Z,99.20
2023-12-07T01:58:07.819Z,99.30
2023-12-07T02:00:37.273Z,99.30
2023-12-07T02:03:07.264Z,99.30
2023-12-07T02:05:36.499Z,99.20
2023-12-07T02:08:05.909Z,99.20
2023-12-07T02:10:33.874Z,99.20
2023-12-07T02:13:01.875Z,99.30
2023-12-07T02:15:29.840Z,99.30
2023-12-07T02:18:05.178Z,99.40
2023-12-07T02:20:38.607Z,99.60
2023-12-07T02:23:09.813Z,99.80
2023-12-07T02:25:50.366Z,99.80
2023-12-07T02:28:19.747Z,99.60
2023-12-07T02:30:47.902Z,99.10
2023-12-07T02:33:16.899Z,98.80
2023-12-07T02:35:44.889Z,98.60
2023-12-07T02:38:13.387Z,98.40
2023-12-07T02:40:42.488Z,98.20
2023-12-07T02:43:11.043Z,97.90
2023-12-07T02:45:40.719Z,97.70
2023-12-07T02:48:09.485Z,97.50
2023-12-07T02:50:37.373Z,97.30
2023-12-07T02:53:05.229Z,97.20
2023-12-07T02:55:33.143Z,97.40
2023-12-07T02:58:01.123Z,97.40
2023-12-07T03:00:29.029Z,97.00
2023-12-07T03:02:58.243Z,97.10
2023-12-07T03:05:26.157Z,96.70
2023-12-07T03:07:53.972Z,96.30
2023-12-07T03:10:21.971Z,96.10
2023-12-07T03:12:49.888Z,96.00
2023-12-07T03:15:17.789Z,96.30
2023-12-07T03:17:45.786Z,96.20
2023-12-07T03:20:15.316Z,96.10
2023-12-07T03:22:43.236Z,96.00
2023-12-07T03:25:11.335Z,96.00
2023-12-07T03:27:39.288Z,96.00
2023-12-07T03:30:08.710Z,96.20
2023-12-07T03:32:36.594Z,96.60
2023-12-07T03:35:04.726Z,97.00
2023-12-07T03:37:33.952Z,97.40
2023-12-07T03:40:01.884Z,97.80
2023-12-07T03:42:50.066Z,98.30
2023-12-07T03:45:17.975Z,98.60
2023-12-07T03:47:46.026Z,98.60
2023-12-07T03:50:14.276Z,98.60
2023-12-07T03:52:43.747Z,98.50
2023-12-07T03:55:12.404Z,98.60
2023-12-07T03:57:40.507Z,98.80
2023-12-07T04:00:12.849Z,98.90
2023-12-07T04:02:40.015Z,98.90
2023-12-07T04:05:08.391Z,98.90
2023-12-07T04:07:36.561Z,98.60
2023-12-07T04:10:07.193Z,98.30
2023-12-07T04:12:35.080Z,98.30
2023-12-07T04:15:02.981Z,98.20
2023-12-07T04:17:30.944Z,98.10
2023-12-07T04:19:58.817Z,98.10
2023-12-07T04:22:27.012Z,97.90
2023-12-07T04:24:55.080Z,97.90
2023-12-07T04:27:24.314Z,98.00
2023-12-07T04:29:52.179Z,98.10
2023-12-07T04:32:20.027Z,98.40
2023-12-07T04:34:47.906Z,98.40
2023-12-07T04:37:15.757Z,98.60
2023-12-07T04:39:43.733Z,98.50
2023-12-07T04:42:11.608Z,98.60
2023-12-07T04:44:41.030Z,98.80
2023-12-07T04:47:08.903Z,98.70
2023-12-07T04:49:36.859Z,98.70
2023-12-07T04:52:04.988Z,98.70
2023-12-07T04:54:32.821Z,98.90
2023-12-07T04:57:01.028Z,98.80
2023-12-07T04:59:29.055Z,98.90
2023-12-07T05:01:58.252Z,99.00
2023-12-07T05:04:26.160Z,99.00
2023-12-07T05:06:54.166Z,99.00
2023-12-07T05:09:22.826Z,98.90
2023-12-07T05:11:51.207Z,98.90
2023-12-07T05:14:19.155Z,99.50
2023-12-07T05:16:49.429Z,99.60
2023-12-07T05:19:18.861Z,99.30
2023-12-07T05:21:46.847Z,99.10
2023-12-07T05:24:14.812Z,99.00
2023-12-07T05:26:43.653Z,99.00
2023-12-07T05:29:11.637Z,99.40
2023-12-07T05:31:39.545Z,99.40
2023-12-07T05:34:07.573Z,99.40
2023-12-07T05:36:36.833Z,99.40
2023-12-07T05:39:08.183Z,99.00
2023-12-07T05:41:36.092Z,98.50
2023-12-07T05:44:04.877Z,98.40
2023-12-07T05:46:33.780Z,98.30
2023-12-07T05:49:01.771Z,98.20
2023-12-07T05:51:29.669Z,98.10
2023-12-07T05:53:59.191Z,98.30
2023-12-07T05:56:27.244Z,98.10
2023-12-07T05:58:55.134Z,98.30
2023-12-07T06:01:23.159Z,98.30
2023-12-07T06:03:51.116Z,98.30
2023-12-07T06:06:20.000Z,98.40
2023-12-07T06:08:47.886Z,98.40
2023-12-07T06:11:17.381Z,98.50
2023-12-07T06:13:45.307Z,98.60
2023-12-07T06:16:18.173Z,98.70
2023-12-07T06:18:46.678Z,99.30
2023-12-07T06:21:16.459Z,99.60
2023-12-07T06:23:47.417Z,99.60
2023-12-07T06:26:17.219Z,99.40
2023-12-07T06:28:45.347Z,99.30
2023-12-07T06:31:16.138Z,99.40
2023-12-07T06:33:44.355Z,99.40
2023-12-07T06:36:12.614Z,99.50
2023-12-07T06:38:40.811Z,99.40
2023-12-07T06:41:08.832Z,99.30
2023-12-07T06:43:38.133Z,99.10
2023-12-07T06:46:06.255Z,98.80
2023-12-07T06:48:34.123Z,98.80
2023-12-07T06:51:02.214Z,98.80
2023-12-07T06:53:30.125Z,98.70
2023-12-07T06:55:58.180Z,98.90
2023-12-07T06:58:26.626Z,98.90
2023-12-07T07:00:55.898Z,98.80
2023-12-07T07:03:24.078Z,99.00
2023-12-07T07:05:52.357Z,99.20
2023-12-07T07:08:20.430Z,99.30
2023-12-07T07:10:48.805Z,99.60
2023-12-07T07:13:18.176Z,99.80
2023-12-07T07:15:46.336Z,99.60
2023-12-07T07:18:15.959Z,99.70
2023-12-07T07:20:44.055Z,99.50
2023-12-07T07:23:12.046Z,99.50
2023-12-07T07:25:40.773Z,99.30
2023-12-07T07:28:09.065Z,99.10
2023-12-07T07:30:36.956Z,98.90
2023-12-07T07:33:05.118Z,98.70
2023-12-07T07:35:34.483Z,98.40
2023-12-07T07:38:02.394Z,98.10
2023-12-07T07:40:30.337Z,97.90
2023-12-07T07:42:58.223Z,97.70
2023-12-07T07:45:26.162Z,97.50
2023-12-07T07:47:54.157Z,97.30
2023-12-07T07:50:22.268Z,97.10
2023-12-07T07:52:51.527Z,96.70
2023-12-07T07:55:19.515Z,96.30
2023-12-07T07:57:47.404Z,95.90
2023-12-07T08:00:17.194Z,95.20
2023-12-07T08:02:45.113Z,94.60
2023-12-07T08:05:13.789Z,93.70
2023-12-07T08:07:41.750Z,93.00
2023-12-07T08:10:11.646Z,92.60
2023-12-07T08:12:41.898Z,91.70
2023-12-07T08:15:12.219Z,91.50
2023-12-07T08:17:41.632Z,90.70
2023-12-07T08:20:11.425Z,89.90
2023-12-07T08:22:39.388Z,88.80
2023-12-07T08:25:11.586Z,88.50
2023-12-07T08:27:41.642Z,88.90
2023-12-07T08:30:11.392Z,88.90
2023-12-07T08:32:39.817Z,89.30
2023-12-07T08:35:09.666Z,89.60
2023-12-07T08:37:40.672Z,88.90
2023-12-07T08:40:11.047Z,89.00
2023-12-07T08:42:39.026Z,89.30
2023-12-07T08:45:09.114Z,88.50
2023-12-07T08:47:37.066Z,86.80
2023-12-07T08:50:05.676Z,86.40
2023-12-07T08:52:42.163Z,87.80
2023-12-07T08:55:17.025Z,87.20
2023-12-07T08:57:45.026Z,87.00
2023-12-07T09:00:15.268Z,86.80
2023-12-07T09:02:47.383Z,87.70
2023-12-07T09:05:16.660Z,86.60
2023-12-07T09:07:44.664Z,85.70
2023-12-07T09:10:12.998Z,84.60
2023-12-07T09:12:40.892Z,85.30
2023-12-07T09:15:10.848Z,85.10
2023-12-07T09:17:41.127Z,84.50
2023-12-07T09:20:13.325Z,84.40
2023-12-07T09:22:42.892Z,82.40
2023-12-07T09:25:11.216Z,83.20
2023-12-07T09:27:39.605Z,82.30
2023-12-07T09:30:11.824Z,82.00
2023-12-07T09:32:44.122Z,83.50
2023-12-07T09:35:16.186Z,82.90
2023-12-07T09:37:44.625Z,83.80
2023-12-07T09:40:18.925Z,81.60
2023-12-07T09:42:47.521Z,81.90
2023-12-07T09:45:18.045Z,80.40
2023-12-07T09:47:50.093Z,79.80
2023-12-07T09:50:19.873Z,80.80
2023-12-07T09:52:56.924Z,80.10
2023-12-07T09:55:32.986Z,81.30
2023-12-07T09:58:01.016Z,82.50
2023-12-07T10:00:29.862Z,82.90
2023-12-07T10:02:59.141Z,81.70
2023-12-07T10:05:27.757Z,82.90
2023-12-07T10:07:56.005Z,82.00
2023-12-07T10:10:23.953Z,82.30
2023-12-07T10:12:54.805Z,82.30
2023-12-07T10:15:24.343Z,82.70
2023-12-07T10:17:53.433Z,83.20
2023-12-07T10:20:25.337Z,82.40
2023-12-07T10:23:04.196Z,81.60
2023-12-07T10:25:32.722Z,81.30
2023-12-07T10:28:02.055Z,80.60
2023-12-07T10:30:30.178Z,80.10
2023-12-07T10:32:58.133Z,79.50
2023-12-07T10:35:27.909Z,79.00
2023-12-07T10:37:55.852Z,77.60
2023-12-07T10:40:24.102Z,77.20
2023-12-07T10:42:58.701Z,76.90
2023-12-07T10:45:28.198Z,77.10
2023-12-07T10:48:01.071Z,77.60
2023-12-07T10:50:36.055Z,77.40
2023-12-07T10:53:10.978Z,75.30
2023-12-07T10:55:45.529Z,70.50
2023-12-07T10:58:15.448Z,71.00
2023-12-07T11:00:47.934Z,73.80
2023-12-07T11:03:19.219Z,72.40
2023-12-07T11:05:49.663Z,68.00
2023-12-07T11:08:25.349Z,68.00
2023-12-07T11:11:04.499Z,62.90
2023-12-07T11:13:34.052Z,61.60
2023-12-07T11:16:02.532Z,59.20
2023-12-07T11:18:31.152Z,58.80
2023-12-07T11:21:02.088Z,60.20
2023-12-07T11:23:30.578Z,58.70
2023-12-07T11:25:58.571Z,59.20
2023-12-07T11:28:38.180Z,59.20
2023-12-07T11:31:09.336Z,58.60
2023-12-07T11:33:40.329Z,57.10
2023-12-07T11:36:11.666Z,56.10
2023-12-07T11:38:39.924Z,57.30
2023-12-07T11:41:08.237Z,58.00
2023-12-07T11:43:44.844Z,58.30
2023-12-07T11:46:14.014Z,58.40
2023-12-07T11:48:47.494Z,58.20
2023-12-07T11:51:18.318Z,59.00
2023-12-07T11:53:46.290Z,57.90
2023-12-07T11:56:14.665Z,58.30
2023-12-07T11:58:42.631Z,57.60
2023-12-07T12:01:11.157Z,58.60
2023-12-07T12:03:39.381Z,58.70
2023-12-07T12:06:11.234Z,55.70
2023-12-07T12:08:42.905Z,56.80
2023-12-07T12:11:10.778Z,55.50
2023-12-07T12:13:39.591Z,56.00
2023-12-07T12:16:08.972Z,55.90
2023-12-07T12:18:37.190Z,56.20
2023-12-07T12:21:05.928Z,55.90
2023-12-07T12:23:33.815Z,54.80
2023-12-07T12:26:04.137Z,55.70
2023-12-07T12:28:33.879Z,55.80
2023-12-07T12:31:02.158Z,56.00
2023-12-07T12:33:30.060Z,55.70
2023-12-07T12:36:07.819Z,56.20
2023-12-07T12:38:42.439Z,55.70
2023-12-07T12:41:14.454Z,55.60
2023-12-07T12:43:43.728Z,55.70
2023-12-07T12:46:12.946Z,56.40
2023-12-07T12:48:55.386Z,55.40
2023-12-07T12:51:25.186Z,56.50
2023-12-07T12:53:54.044Z,56.20
2023-12-07T12:56:23.921Z,57.00
2023-12-07T12:58:52.072Z,56.80
2023-12-07T13:01:21.997Z,57.60
2023-12-07T13:03:50.387Z,56.60
2023-12-07T13:06:19.088Z,56.70
2023-12-07T13:08:48.002Z,57.70
2023-12-07T13:11:17.864Z,57.50
2023-12-07T13:13:48.336Z,57.90
2023-12-07T13:16:18.065Z,57.80
2023-12-07T13:18:46.449Z,58.30
2023-12-07T13:21:16.648Z,57.80
2023-12-07T13:23:47.082Z,57.80
2023-12-07T13:26:15.374Z,57.60
2023-12-07T13:28:43.323Z,57.10
2023-12-07T13:31:12.581Z,57.10
2023-12-07T13:33:49.711Z,56.90
2023-12-07T13:36:23.957Z,56.20
2023-12-07T13:38:52.102Z,56.50
2023-12-07T13:41:20.668Z,56.20
2023-12-07T13:43:50.292Z,57.00
2023-12-07T13:46:19.833Z,57.20
2023-12-07T13:48:47.890Z,55.90
2023-12-07T13:51:15.798Z,57.00
2023-12-07T13:53:43.618Z,57.40
2023-12-07T13:56:11.632Z,57.00
2023-12-07T13:58:40.239Z,57.20
2023-12-07T14:01:08.499Z,58.80
2023-12-07T14:03:38.284Z,59.30
2023-12-07T14:06:15.074Z,59.20
2023-12-07T14:08:49.501Z,59.30
2023-12-07T14:11:17.375Z,60.10
2023-12-07T14:13:47.226Z,60.50
2023-12-07T14:16:20.132Z,60.70
2023-12-07T14:19:05.189Z,61.10
2023-12-07T14:21:52.396Z,61.50
2023-12-07T14:24:24.087Z,61.90
2023-12-07T14:26:52.023Z,62.20
2023-12-07T14:29:26.480Z,62.60
2023-12-07T14:31:55.574Z,62.80
2023-12-07T14:34:34.194Z,62.90
2023-12-07T14:37:06.549Z,62.90
2023-12-07T14:39:35.383Z,62.60
2023-12-07T14:42:05.487Z,62.90
2023-12-07T14:44:33.470Z,62.40
2023-12-07T14:47:01.423Z,62.00
2023-12-07T14:49:30.684Z,62.00
2023-12-07T14:52:01.345Z,62.30
2023-12-07T14:54:30.551Z,62.70
2023-12-07T14:56:59.478Z,61.90
2023-12-07T14:59:28.197Z,62.10
2023-12-07T15:01:56.030Z,62.60
2023-12-07T15:04:30.865Z,62.80
2023-12-07T15:07:04.589Z,63.00
2023-12-07T15:09:32.834Z,63.30
2023-12-07T15:12:00.877Z,63.20
2023-12-07T15:14:36.639Z,63.40
2023-12-07T15:17:07.695Z,64.10
2023-12-07T15:19:39.529Z,63.50
2023-12-07T15:22:09.868Z,63.40
2023-12-07T15:24:39.544Z,63.30
2023-12-07T15:27:08.926Z,64.10
2023-12-07T15:29:38.574Z,63.80
2023-12-07T15:32:08.048Z,63.90
2023-12-07T15:34:39.336Z,63.80
2023-12-07T15:37:13.899Z,63.70
2023-12-07T15:39:43.083Z,64.00
2023-12-07T15:42:12.058Z,64.00
2023-12-07T15:44:40.546Z,64.00
2023-12-07T15:47:08.743Z,64.30
2023-12-07T15:49:37.272Z,65.00
2023-12-07T15:52:06.281Z,65.10
2023-12-07T15:54:39.771Z,65.80
2023-12-07T15:57:10.717Z,66.10
2023-12-07T15:59:39.605Z,66.10
2023-12-07T16:02:08.160Z,66.40
2023-12-07T16:04:37.154Z,66.50
2023-12-07T16:07:09.892Z,66.50
2023-12-07T16:09:42.482Z,66.60
2023-12-07T16:12:11.798Z,66.20
2023-12-07T16:14:40.458Z,66.50
2023-12-07T16:17:09.473Z,67.10
2023-12-07T16:19:37.651Z,67.70
2023-12-07T16:22:06.804Z,68.30
2023-12-07T16:24:35.572Z,68.60
2023-12-07T16:27:07.880Z,68.60
2023-12-07T16:29:36.834Z,68.20
2023-12-07T16:32:06.070Z,68.50
2023-12-07T16:34:34.151Z,68.90
2023-12-07T16:37:02.173Z,68.80
2023-12-07T16:39:31.145Z,69.00
2023-12-07T16:42:02.277Z,68.50
2023-12-07T16:44:33.036Z,68.60
2023-12-07T16:47:01.140Z,68.00
2023-12-07T16:49:29.221Z,68.20
2023-12-07T16:51:57.177Z,67.90
2023-12-07T16:54:25.217Z,67.80
2023-12-07T16:56:53.305Z,67.10
2023-12-07T16:59:21.521Z,67.40
2023-12-07T17:01:51.231Z,67.70
2023-12-07T17:04:19.731Z,66.90
2023-12-07T17:06:55.727Z,67.10
2023-12-07T17:09:25.964Z,67.70
2023-12-07T17:11:53.934Z,68.60
2023-12-07T17:14:22.049Z,68.50
2023-12-07T17:16:52.107Z,68.70
2023-12-07T17:19:20.382Z,69.10
2023-12-07T17:21:49.460Z,69.50
2023-12-07T17:24:19.482Z,70.00
2023-12-07T17:26:52.644Z,70.30
2023-12-07T17:29:22.896Z,70.70
2023-12-07T17:31:52.202Z,70.20
2023-12-07T17:34:20.280Z,69.90
2023-12-07T17:36:48.459Z,70.10
2023-12-07T17:39:16.784Z,69.80
2023-12-07T17:41:44.822Z,69.90
2023-12-07T17:44:12.852Z,70.40
2023-12-07T17:46:40.776Z,69.10
2023-12-07T17:49:10.384Z,68.90
2023-12-07T17:51:38.353Z,69.40
2023-12-07T17:54:06.538Z,70.20
2023-12-07T17:56:34.557Z,70.20
2023-12-07T17:59:03.947Z,70.10
2023-12-07T18:01:31.883Z,69.40
2023-12-07T18:04:00.709Z,70.20
2023-12-07T18:06:30.294Z,71.30
2023-12-07T18:08:58.342Z,71.80
2023-12-07T18:11:26.523Z,72.60
2023-12-07T18:13:55.160Z,73.60
2023-12-07T18:16:24.353Z,73.70
2023-12-07T18:18:52.792Z,73.50
2023-12-07T18:21:21.280Z,73.40
2023-12-07T18:23:50.600Z,73.10
2023-12-07T18:26:18.796Z,73.50
2023-12-07T18:28:46.752Z,72.30
2023-12-07T18:31:15.466Z,69.90
2023-12-07T18:33:44.178Z,68.50
2023-12-07T18:36:12.286Z,67.20
2023-12-07T18:38:40.210Z,67.20
2023-12-07T18:41:09.460Z,67.20
2023-12-07T18:43:37.310Z,66.90
2023-12-07T18:46:06.913Z,66.80
2023-12-07T18:48:35.189Z,66.90
2023-12-07T18:51:04.421Z,66.60
2023-12-07T18:53:33.206Z,66.70
2023-12-07T18:56:01.441Z,66.00
2023-12-07T18:58:30.689Z,65.70
2023-12-07T19:00:59.293Z,65.80
2023-12-07T19:03:27.190Z,65.90
2023-12-07T19:05:55.220Z,65.70
2023-12-07T19:08:23.769Z,66.10
2023-12-07T19:10:51.726Z,66.00
2023-12-07T19:13:19.699Z,65.70
2023-12-07T19:15:50.344Z,66.40
2023-12-07T19:18:18.518Z,66.70
2023-12-07T19:20:46.468Z,67.70
2023-12-07T19:23:14.332Z,68.50
2023-12-07T19:25:42.275Z,69.70
2023-12-07T19:28:10.104Z,68.80
2023-12-07T19:30:38.047Z,69.20
2023-12-07T19:33:09.137Z,71.10
2023-12-07T19:35:37.083Z,73.20
2023-12-07T19:38:06.111Z,72.50
2023-12-07T19:40:34.000Z,73.70
2023-12-07T19:43:01.911Z,75.30
2023-12-07T19:45:31.061Z,75.30
2023-12-07T19:47:59.137Z,76.00
2023-12-07T19:50:29.390Z,76.40
2023-12-07T19:52:57.313Z,76.80
2023-12-07T19:55:26.458Z,73.20
2023-12-07T19:57:54.291Z,70.60
2023-12-07T20:00:23.223Z,70.30
2023-12-07T20:02:51.212Z,65.50
2023-12-07T20:05:19.389Z,64.30
2023-12-07T20:07:51.566Z,64.90
2023-12-07T20:10:20.441Z,63.20
2023-12-07T20:12:50.431Z,66.40
2023-12-07T20:15:18.807Z,63.40
2023-12-07T20:17:46.952Z,66.90
2023-12-07T20:20:14.986Z,68.90
2023-12-07T20:22:42.786Z,65.30
2023-12-07T20:25:12.020Z,65.10
2023-12-07T20:27:39.834Z,64.40
2023-12-07T20:30:09.952Z,65.10
2023-12-07T20:32:38.292Z,64.10
2023-12-07T20:35:06.982Z,64.40
2023-12-07T20:37:34.850Z,65.60
2023-12-07T20:40:03.603Z,67.50
2023-12-07T20:42:32.868Z,70.90
2023-12-07T20:45:00.907Z,72.90
2023-12-07T20:47:29.266Z,73.70
2023-12-07T20:49:57.505Z,73.60
2023-12-07T20:52:26.514Z,74.30
2023-12-07T20:54:54.993Z,74.10
2023-12-07T20:57:23.017Z,74.00
2023-12-07T20:59:52.387Z,73.50
2023-12-07T21:02:20.924Z,74.80
2023-12-07T21:04:48.821Z,75.50
2023-12-07T21:07:16.763Z,75.20
2023-12-07T21:09:44.756Z,75.70
2023-12-07T21:12:12.834Z,76.20
2023-12-07T21:14:40.915Z,75.10
2023-12-07T21:17:14.233Z,74.50
2023-12-07T21:19:42.140Z,75.00
2023-12-07T21:22:10.126Z,70.60
2023-12-07T21:24:37.971Z,71.40
2023-12-07T21:27:06.327Z,69.90
2023-12-07T21:29:34.207Z,71.70
2023-12-07T21:32:02.016Z,69.20
2023-12-07T21:34:31.275Z,70.50
2023-12-07T21:36:59.457Z,64.20
2023-12-07T21:39:27.299Z,67.80
2023-12-07T21:41:55.148Z,69.70
2023-12-07T21:44:22.987Z,70.50
2023-12-07T21:46:50.814Z,71.10
2023-12-07T21:49:19.223Z,70.90
2023-12-07T21:51:48.459Z,71.50
2023-12-07T21:54:16.340Z,73.40
2023-12-07T21:56:44.198Z,75.50
2023-12-07T21:59:12.644Z,77.10
2023-12-07T22:01:40.490Z,78.60
2023-12-07T22:04:08.452Z,79.60
2023-12-07T22:06:36.540Z,80.10
2023-12-07T22:09:05.763Z,80.50
2023-12-07T22:11:33.664Z,80.40
2023-12-07T22:14:01.532Z,80.50
2023-12-07T22:16:29.367Z,82.20
2023-12-07T22:18:57.442Z,82.70
2023-12-07T22:21:25.360Z,83.00
2023-12-07T22:23:53.197Z,83.20
2023-12-07T22:26:22.419Z,83.10
2023-12-07T22:28:50.252Z,82.60
2023-12-07T22:31:18.119Z,82.80
2023-12-07T22:33:59.986Z,82.80
2023-12-07T22:36:29.384Z,82.40
2023-12-07T22:38:59.081Z,82.90
2023-12-07T22:41:28.798Z,83.30
2023-12-07T22:43:56.850Z,83.30
2023-12-07T22:46:25.446Z,83.10
2023-12-07T22:48:53.457Z,83.10
2023-12-07T22:51:21.388Z,83.30
2023-12-07T22:53:49.325Z,83.00
2023-12-07T22:56:17.203Z,82.20
2023-12-07T22:58:47.358Z,80.70
2023-12-07T23:01:15.249Z,80.70
2023-12-07T23:03:43.248Z,79.70
2023-12-07T23:06:11.182Z,79.00
2023-12-07T23:08:39.083Z,79.10
2023-12-07T23:11:06.976Z,77.70
2023-12-07T23:13:34.826Z,77.50
2023-12-07T23:16:03.995Z,77.60
2023-12-07T23:18:31.967Z,78.10
2023-12-07T23:21:00.066Z,78.50
2023-12-07T23:23:31.534Z,78.50
2023-12-07T23:26:00.390Z,78.20
2023-12-07T23:28:28.318Z,78.70
2023-12-07T23:30:56.140Z,79.20
2023-12-07T23:33:25.403Z,78.90
2023-12-07T23:35:53.438Z,79.30
2023-12-07T23:38:21.475Z,79.20
2023-12-07T23:40:49.312Z,78.80
2023-12-07T23:43:17.361Z,78.90
2023-12-07T23:45:45.413Z,79.30
2023-12-07T23:48:13.409Z,80.00
2023-12-07T23:50:42.864Z,80.20
2023-12-07T23:53:10.804Z,80.30
2023-12-07T23:55:38.896Z,79.80
2023-12-07T23:58:07.178Z,79.90
